Emsworth, Pennsylvania
Current Conditions -  °F | °C
As of 11:51 AM on Tuesday 21 Oct 2014 (Local Time) from KPIT Reporting Station
Overcast Overcast  
Wind Chill: 54°   Ceiling: 3200
Heat Index: 54°   Visibility: 10mi
Dew Point: 47°   Wind: 14mph
Humidity: 77%   Direction: 330°NNW
Pressure: 29.89"   Gusts: NA
Location:  40.5069°N, 80.0715°W
Report Text: KPIT 211551Z 33012KT 10SM SCT020 BKN032 OVC065 12/08 A2989 RMK AO2 SLP130 T01220083
Loading
Personal Weather Stations






























Interactive Weather Map
Tropical Storm Tracking
New forecast layout! Learn more

10-Day Weather Forecast

Advertisements
Track Severe Weather on mobile